Time;durP1;ratioP1;P1;durP2;ratioP2;P2;SDS_P1;SDS_P2;PMS_P1;PMS_P2;Temp;Humidity;BMP_temperature;BMP_pressure;BME280_temperature;BME280_humidity;BME280_pressure;Samples;Min_cycle;Max_cycle;Signal;HPM_P1;HPM_P2
2022/03/19 00:01:41;;;;;;;54.23;36.80;;;7.60;99.90;;;;;;5032862;28;20568;-85
2022/03/19 00:04:06;;;;;;;49.63;35.80;;;7.20;99.90;;;;;;5027310;28;21188;-84
2022/03/19 00:06:38;;;;;;;54.27;35.80;;;7.30;99.90;;;;;;5031657;28;20208;-85
2022/03/19 00:09:05;;;;;;;47.67;35.78;;;7.20;99.90;;;;;;5037129;28;20239;-85
2022/03/19 00:11:31;;;;;;;48.15;36.08;;;7.50;99.90;;;;;;5029879;28;20209;-84
2022/03/19 00:13:56;;;;;;;52.43;36.03;;;7.00;99.90;;;;;;5025059;28;20228;-84
2022/03/19 00:16:22;;;;;;;54.70;37.90;;;6.90;99.90;;;;;;5040322;28;20246;-85
2022/03/19 00:18:48;;;;;;;53.37;38.43;;;7.10;99.90;;;;;;5031286;28;20248;-84
2022/03/19 00:21:14;;;;;;;49.30;35.42;;;7.00;99.90;;;;;;5025560;28;20213;-84
2022/03/19 00:23:40;;;;;;;50.53;36.20;;;6.70;99.90;;;;;;5028517;28;20237;-86
2022/03/19 00:26:06;;;;;;;46.53;34.57;;;6.70;99.90;;;;;;5034867;28;20424;-85
2022/03/19 00:28:32;;;;;;;47.30;35.95;;;7.10;99.90;;;;;;5032159;28;20182;-85
2022/03/19 00:30:57;;;;;;;49.17;36.23;;;7.20;99.90;;;;;;5034362;28;20703;-83
2022/03/19 00:33:23;;;;;;;52.30;36.60;;;7.60;99.90;;;;;;5027013;28;20202;-86
2022/03/19 00:35:48;;;;;;;50.03;36.53;;;7.00;99.90;;;;;;5015537;28;20670;-85
2022/03/19 00:38:14;;;;;;;49.60;36.03;;;6.70;99.90;;;;;;5030323;28;20185;-85
2022/03/19 00:40:40;;;;;;;45.10;34.70;;;7.30;99.90;;;;;;5032357;28;20200;-85
2022/03/19 00:43:05;;;;;;;48.00;34.27;;;7.10;99.90;;;;;;5030586;28;20681;-85
2022/03/19 00:45:31;;;;;;;54.40;36.70;;;7.10;99.90;;;;;;5033494;28;20597;-85
2022/03/19 00:47:56;;;;;;;51.90;36.83;;;7.10;99.90;;;;;;5033761;28;20192;-85
2022/03/19 00:50:22;;;;;;;50.30;37.40;;;7.30;99.90;;;;;;5026071;28;20213;-85
2022/03/19 00:52:47;;;;;;;52.13;37.60;;;7.50;99.90;;;;;;5049770;28;20236;-86
2022/03/19 00:55:14;;;;;;;50.00;34.77;;;6.80;99.90;;;;;;5025834;28;20180;-85
2022/03/19 00:57:42;;;;;;;49.55;37.38;;;7.60;99.90;;;;;;5033447;28;20177;-85
2022/03/19 01:00:11;;;;;;;52.60;38.40;;;7.30;99.90;;;;;;5031287;28;20192;-85
2022/03/19 01:02:40;;;;;;;48.97;36.22;;;7.20;99.90;;;;;;5031917;28;20279;-85
2022/03/19 01:05:06;;;;;;;46.80;33.78;;;7.20;99.90;;;;;;5020193;28;20665;-84
2022/03/19 01:07:32;;;;;;;45.80;34.70;;;7.20;99.90;;;;;;5033896;28;20709;-85
2022/03/19 01:09:58;;;;;;;48.50;35.50;;;7.10;99.90;;;;;;5033120;28;20302;-86
2022/03/19 01:12:23;;;;;;;47.93;35.43;;;7.00;99.90;;;;;;5033435;28;20537;-84
2022/03/19 01:14:49;;;;;;;50.00;35.50;;;7.20;99.90;;;;;;5031119;28;20216;-84
2022/03/19 01:17:14;;;;;;;48.17;34.77;;;7.00;99.90;;;;;;5039888;28;20243;-85
2022/03/19 01:19:57;;;;;;;49.90;34.20;;;7.00;99.90;;;;;;5026326;28;20209;-84
2022/03/19 01:22:23;;;;;;;50.55;33.55;;;7.00;99.90;;;;;;5030885;28;20374;-85
2022/03/19 01:24:48;;;;;;;47.27;33.90;;;7.50;99.90;;;;;;5031788;28;20185;-85
2022/03/19 01:27:14;;;;;;;48.17;35.20;;;6.90;99.90;;;;;;5036823;28;20612;-84
2022/03/19 01:29:39;;;;;;;45.67;33.77;;;6.90;99.90;;;;;;5034519;28;20664;-86
2022/03/19 01:32:05;;;;;;;46.00;33.60;;;7.00;99.90;;;;;;5028236;28;20578;-85
2022/03/19 01:34:31;;;;;;;47.57;34.23;;;6.90;99.90;;;;;;5021680;28;20201;-86
2022/03/19 01:36:56;;;;;;;51.40;34.10;;;7.40;99.90;;;;;;5052933;28;20819;-85
2022/03/19 01:39:22;;;;;;;47.67;34.20;;;6.50;99.90;;;;;;5030697;28;20182;-85
2022/03/19 01:41:47;;;;;;;46.30;34.33;;;6.70;99.90;;;;;;5031260;28;20180;-86
2022/03/19 01:44:22;;;;;;;47.17;31.67;;;6.50;99.90;;;;;;5022118;28;20306;-86
2022/03/19 01:46:57;;;;;;;47.95;31.83;;;7.20;99.90;;;;;;5033703;28;20668;-85
2022/03/19 01:49:23;;;;;;;42.42;30.90;;;7.10;99.90;;;;;;5028050;28;20752;-84
2022/03/19 01:51:49;;;;;;;49.10;35.07;;;6.60;99.90;;;;;;5032500;28;20206;-83
2022/03/19 01:54:15;;;;;;;51.50;33.63;;;6.70;99.90;;;;;;5024302;28;20464;-85
2022/03/19 01:56:44;;;;;;;44.63;32.00;;;7.40;99.90;;;;;;5038255;28;20220;-85
2022/03/19 01:59:12;;;;;;;46.33;34.15;;;6.60;99.90;;;;;;5029024;28;20189;-85
2022/03/19 02:01:38;;;;;;;50.58;34.05;;;6.60;99.90;;;;;;5044274;28;20192;-84
2022/03/19 02:04:04;;;;;;;41.80;31.30;;;7.00;99.90;;;;;;5024400;28;20276;-84
2022/03/19 02:06:31;;;;;;;43.15;33.88;;;7.00;99.90;;;;;;5029361;28;20182;-85
2022/03/19 02:08:58;;;;;;;45.17;34.55;;;7.40;99.90;;;;;;5026604;28;20649;-85
2022/03/19 02:11:26;;;;;;;45.25;33.38;;;7.30;99.90;;;;;;5042439;28;20218;-85
2022/03/19 02:13:52;;;;;;;44.70;34.00;;;7.00;99.90;;;;;;5025038;28;20209;-84
2022/03/19 02:16:19;;;;;;;49.37;32.73;;;6.60;99.90;;;;;;5031214;28;20181;-84
2022/03/19 02:18:44;;;;;;;47.78;32.33;;;6.90;99.90;;;;;;5023167;28;20177;-84
2022/03/19 02:21:10;;;;;;;45.03;32.90;;;6.30;99.90;;;;;;5045508;28;20178;-84
2022/03/19 02:26:19;;;;;;;40.70;31.50;;;6.90;99.90;;;;;;5048178;28;20208;-85
2022/03/19 02:28:45;;;;;;;44.60;31.63;;;6.40;99.90;;;;;;5028929;28;20554;-85
2022/03/19 02:31:10;;;;;;;48.60;32.93;;;7.30;99.90;;;;;;5029975;28;20209;-84
2022/03/19 02:33:36;;;;;;;44.57;33.70;;;7.30;99.90;;;;;;5021113;28;20224;-84
2022/03/19 02:36:01;;;;;;;43.40;30.83;;;6.40;99.90;;;;;;5038353;28;20239;-84
2022/03/19 02:38:27;;;;;;;48.17;32.67;;;6.40;99.90;;;;;;5048421;28;20182;-85
2022/03/19 02:40:52;;;;;;;48.30;33.00;;;6.70;99.90;;;;;;5029859;28;20190;-84
2022/03/19 02:43:18;;;;;;;42.83;31.30;;;7.30;99.90;;;;;;5044703;28;20206;-85
2022/03/19 02:45:46;;;;;;;43.97;33.37;;;6.40;99.90;;;;;;5051480;28;20224;-85
2022/03/19 02:48:12;;;;;;;45.10;30.45;;;7.20;99.90;;;;;;5029416;28;20188;-85
2022/03/19 02:50:38;;;;;;;45.37;31.17;;;6.70;99.90;;;;;;5035480;28;20351;-86
2022/03/19 02:53:06;;;;;;;41.70;32.20;;;6.70;99.90;;;;;;5036832;28;20451;-86
2022/03/19 02:55:37;;;;;;;40.95;30.33;;;6.70;99.90;;;;;;5035242;28;20288;-86
2022/03/19 02:58:04;;;;;;;38.00;29.77;;;6.70;99.90;;;;;;5033051;28;20185;-85
2022/03/19 03:00:30;;;;;;;45.03;32.17;;;6.20;99.90;;;;;;5031267;28;20676;-85
2022/03/19 03:02:56;;;;;;;41.77;32.80;;;6.60;99.90;;;;;;5030531;28;20455;-84
2022/03/19 03:05:21;;;;;;;41.35;32.22;;;6.40;99.90;;;;;;5027031;28;20438;-85
2022/03/19 03:07:47;;;;;;;44.93;32.70;;;6.30;99.90;;;;;;5033718;28;20192;-84
2022/03/19 03:10:16;;;;;;;45.90;32.87;;;6.50;99.90;;;;;;5042445;28;20344;-84
2022/03/19 03:12:41;;;;;;;45.67;33.80;;;6.70;99.90;;;;;;5031612;28;20204;-84
2022/03/19 03:15:07;;;;;;;40.27;30.00;;;6.60;99.90;;;;;;5030761;28;20644;-85
2022/03/19 03:17:34;;;;;;;41.25;31.30;;;6.70;99.90;;;;;;5032858;28;20189;-85
2022/03/19 03:20:00;;;;;;;40.75;30.65;;;6.70;99.90;;;;;;5025372;28;20276;-84
2022/03/19 03:22:25;;;;;;;44.78;32.05;;;6.80;99.90;;;;;;5029259;28;20181;-84
2022/03/19 03:24:51;;;;;;;40.57;31.30;;;6.80;99.90;;;;;;5036101;28;20186;-84
2022/03/19 03:27:17;;;;;;;41.53;30.70;;;6.00;99.90;;;;;;5036504;28;20608;-85
2022/03/19 03:29:42;;;;;;;44.37;32.00;;;6.50;99.90;;;;;;5051123;28;20208;-84
2022/03/19 03:32:09;;;;;;;41.70;31.03;;;7.00;99.90;;;;;;5028957;28;20233;-84
2022/03/19 03:34:36;;;;;;;40.50;30.70;;;6.20;99.90;;;;;;5025647;28;20267;-86
2022/03/19 03:37:01;;;;;;;44.20;32.47;;;6.00;99.90;;;;;;5051198;28;20337;-83
2022/03/19 03:39:27;;;;;;;45.43;31.70;;;6.50;99.90;;;;;;5032541;28;20185;-84
2022/03/19 03:41:52;;;;;;;44.27;32.83;;;6.20;99.90;;;;;;5027464;28;20213;-84
2022/03/19 03:44:18;;;;;;;41.63;32.27;;;6.90;99.90;;;;;;5035822;28;20235;-84
2022/03/19 03:46:43;;;;;;;39.77;31.80;;;6.60;99.90;;;;;;5035552;28;20192;-84
2022/03/19 03:49:09;;;;;;;44.53;30.90;;;6.90;99.90;;;;;;5025234;28;20191;-84
2022/03/19 03:51:34;;;;;;;39.53;31.87;;;6.30;99.90;;;;;;5035361;28;20209;-84
2022/03/19 03:54:00;;;;;;;38.43;29.20;;;6.90;99.90;;;;;;5032346;28;20212;-84
2022/03/19 03:56:26;;;;;;;43.10;31.70;;;6.50;99.90;;;;;;5028912;28;20181;-84
2022/03/19 03:58:52;;;;;;;40.10;30.73;;;6.30;99.90;;;;;;5028990;28;20661;-85
2022/03/19 04:01:18;;;;;;;39.07;31.80;;;6.80;99.90;;;;;;5027188;28;20190;-85
2022/03/19 04:03:43;;;;;;;41.90;31.07;;;6.00;99.90;;;;;;5030725;28;20586;-85
2022/03/19 04:06:09;;;;;;;41.27;31.17;;;6.00;99.90;;;;;;5030517;28;20235;-84
2022/03/19 04:08:34;;;;;;;44.60;28.90;;;6.60;99.90;;;;;;5039382;28;20183;-85
2022/03/19 04:11:00;;;;;;;43.10;32.07;;;6.30;99.90;;;;;;5032942;28;20216;-85
2022/03/19 04:13:26;;;;;;;39.97;30.53;;;6.40;99.90;;;;;;5022706;28;20206;-84
2022/03/19 04:15:51;;;;;;;37.90;30.03;;;5.90;99.90;;;;;;5029608;28;20661;-85
2022/03/19 04:18:17;;;;;;;43.93;31.93;;;6.30;99.90;;;;;;5036007;28;20177;-84
2022/03/19 04:20:42;;;;;;;41.23;31.00;;;6.40;99.90;;;;;;5031867;28;20188;-85
2022/03/19 04:23:09;;;;;;;44.60;31.40;;;6.20;99.90;;;;;;5033801;28;20213;-86
2022/03/19 04:25:34;;;;;;;42.58;31.33;;;6.00;99.90;;;;;;5035592;28;20184;-84
2022/03/19 04:28:01;;;;;;;41.77;31.27;;;6.20;99.90;;;;;;5032050;28;20239;-84
2022/03/19 04:30:27;;;;;;;45.17;31.38;;;6.10;99.90;;;;;;5034183;28;20712;-85
2022/03/19 04:32:53;;;;;;;46.07;30.60;;;6.40;99.90;;;;;;5030000;28;20233;-84
2022/03/19 04:38:10;;;;;;;40.40;30.27;;;6.40;99.90;;;;;;5046708;28;20227;-84
2022/03/19 04:40:37;;;;;;;40.28;30.58;;;6.10;99.90;;;;;;5044039;28;20223;-83
2022/03/19 04:43:03;;;;;;;39.80;30.73;;;6.00;99.90;;;;;;5026158;28;20208;-84
2022/03/19 04:45:29;;;;;;;40.87;29.53;;;6.30;99.90;;;;;;5020872;28;20240;-85
2022/03/19 04:47:55;;;;;;;44.47;31.80;;;6.50;99.90;;;;;;5028199;28;20442;-85
2022/03/19 04:50:21;;;;;;;39.60;31.17;;;6.30;99.90;;;;;;5018588;28;21067;-85
2022/03/19 04:52:48;;;;;;;43.50;31.20;;;6.40;99.90;;;;;;5024133;28;20270;-84
2022/03/19 04:55:13;;;;;;;39.83;30.02;;;6.40;99.90;;;;;;5022686;28;20187;-84
2022/03/19 04:57:39;;;;;;;41.93;30.53;;;5.80;99.90;;;;;;5026319;28;20201;-84
2022/03/19 05:00:07;;;;;;;40.80;29.47;;;6.30;99.90;;;;;;5029518;28;20275;-84
2022/03/19 05:02:33;;;;;;;42.88;31.73;;;6.40;99.90;;;;;;5036567;28;20330;-85
2022/03/19 05:04:58;;;;;;;43.67;32.43;;;6.20;99.90;;;;;;5023282;28;20564;-84
2022/03/19 05:07:27;;;;;;;42.87;31.07;;;6.30;99.90;;;;;;5026275;28;20451;-84
2022/03/19 05:12:40;;;;;;;38.97;29.95;;;6.30;99.90;;;;;;5042945;28;20253;-83
2022/03/19 05:15:07;;;;;;;40.35;30.75;;;6.20;99.90;;;;;;5043875;28;20200;-83
2022/03/19 05:17:33;;;;;;;40.03;30.25;;;6.20;99.90;;;;;;5028109;28;20650;-84
2022/03/19 05:19:59;;;;;;;39.50;29.33;;;5.80;99.90;;;;;;5031489;28;20234;-85
2022/03/19 05:22:24;;;;;;;41.93;30.00;;;6.50;99.90;;;;;;5032920;28;20687;-84
2022/03/19 05:24:50;;;;;;;38.70;29.63;;;5.70;99.90;;;;;;5026783;28;20807;-85
2022/03/19 05:27:16;;;;;;;40.57;29.33;;;6.10;99.90;;;;;;5030715;28;20425;-83
2022/03/19 05:29:41;;;;;;;37.00;28.98;;;5.70;99.90;;;;;;5027062;28;20722;-85
2022/03/19 05:32:08;;;;;;;41.83;29.00;;;5.70;99.90;;;;;;5045675;28;20185;-84
2022/03/19 05:34:34;;;;;;;43.45;28.75;;;6.00;99.90;;;;;;5024609;28;20209;-84
2022/03/19 05:37:04;;;;;;;37.50;29.47;;;5.70;99.90;;;;;;5027926;28;20707;-83
2022/03/19 05:39:31;;;;;;;40.95;30.63;;;5.50;99.90;;;;;;5026880;28;20447;-85
2022/03/19 05:41:57;;;;;;;42.42;31.02;;;6.20;99.90;;;;;;5036196;28;20523;-85
2022/03/19 05:44:22;;;;;;;42.43;30.53;;;6.00;99.90;;;;;;5024791;28;20243;-84
2022/03/19 05:46:48;;;;;;;42.43;31.13;;;5.50;99.90;;;;;;5052976;28;20182;-85
2022/03/19 05:49:14;;;;;;;44.23;30.90;;;6.20;99.90;;;;;;5025991;28;20439;-83
2022/03/19 05:51:41;;;;;;;41.80;29.80;;;5.70;99.90;;;;;;5028481;28;20214;-84
2022/03/19 05:54:07;;;;;;;41.63;30.65;;;6.10;99.90;;;;;;5026353;28;20524;-84
2022/03/19 05:56:33;;;;;;;43.65;31.33;;;6.20;99.90;;;;;;5032774;28;20702;-83
2022/03/19 05:58:58;;;;;;;42.70;30.60;;;6.60;99.90;;;;;;5032167;28;20188;-85
2022/03/19 06:01:28;;;;;;;39.23;28.20;;;6.30;99.90;;;;;;5029770;28;20198;-84
2022/03/19 06:03:58;;;;;;;42.00;29.35;;;6.40;99.90;;;;;;5024555;28;20493;-83
2022/03/19 06:06:25;;;;;;;42.42;29.88;;;6.00;99.90;;;;;;5031327;28;20182;-85
2022/03/19 06:08:51;;;;;;;43.80;29.75;;;6.30;99.90;;;;;;5031137;28;20190;-85
2022/03/19 06:11:16;;;;;;;38.55;28.80;;;5.80;99.90;;;;;;5034317;28;20220;-85
2022/03/19 06:13:42;;;;;;;38.87;30.53;;;6.00;99.90;;;;;;5028165;28;20208;-84
2022/03/19 06:16:07;;;;;;;39.67;26.73;;;5.80;99.90;;;;;;5039226;28;20184;-87
2022/03/19 06:18:33;;;;;;;38.43;28.73;;;6.30;99.90;;;;;;5031227;28;20186;-91
2022/03/19 06:20:59;;;;;;;39.47;28.33;;;6.30;99.90;;;;;;5042018;28;20192;-90
2022/03/19 06:23:25;;;;;;;38.87;29.50;;;6.50;99.90;;;;;;5032364;28;20499;-89
2022/03/19 06:25:51;;;;;;;40.33;30.63;;;6.70;99.90;;;;;;5058335;28;20213;-86
2022/03/19 06:28:17;;;;;;;40.30;28.08;;;7.10;99.90;;;;;;5037730;28;20217;-91
2022/03/19 06:30:42;;;;;;;37.57;27.73;;;7.00;99.90;;;;;;5034089;28;20252;-94
2022/03/19 06:33:09;;;;;;;41.00;29.50;;;6.80;99.90;;;;;;5037837;28;20208;-89
2022/03/19 06:38:27;;;;;;;35.45;29.65;;;7.40;99.90;;;;;;5053193;28;20195;-86
2022/03/19 06:40:53;;;;;;;40.63;31.30;;;7.30;99.90;;;;;;5035975;28;20596;-85
2022/03/19 06:43:18;;;;;;;38.47;29.00;;;7.00;99.90;;;;;;5032090;28;20205;-87
2022/03/19 06:45:44;;;;;;;36.80;27.90;;;7.10;99.90;;;;;;5024330;28;20690;-88
2022/03/19 06:48:09;;;;;;;38.10;28.37;;;7.10;99.90;;;;;;5036846;28;20183;-85
2022/03/19 06:50:35;;;;;;;41.03;30.80;;;7.30;99.90;;;;;;5027835;28;20220;-86
2022/03/19 06:53:03;;;;;;;39.20;29.15;;;6.70;99.80;;;;;;5032565;28;20568;-87
2022/03/19 06:55:28;;;;;;;37.92;30.02;;;7.00;99.90;;;;;;5033505;28;20634;-90
2022/03/19 06:57:54;;;;;;;40.00;31.17;;;7.00;99.90;;;;;;5050561;28;20193;-86
2022/03/19 07:00:20;;;;;;;38.83;27.53;;;7.10;99.90;;;;;;5027918;28;20239;-86
2022/03/19 07:02:47;;;;;;;35.50;28.60;;;7.30;99.60;;;;;;5045262;28;20210;-85
2022/03/19 07:05:17;;;;;;;38.65;28.27;;;7.50;99.20;;;;;;5028555;28;20181;-84
2022/03/19 07:07:43;;;;;;;37.95;27.95;;;7.20;98.60;;;;;;5034857;28;20190;-85
2022/03/19 07:10:09;;;;;;;35.43;27.60;;;7.90;98.00;;;;;;5032603;28;20186;-84
2022/03/19 07:12:42;;;;;;;36.13;28.58;;;8.40;97.60;;;;;;5032212;28;20174;-84
2022/03/19 07:15:10;;;;;;;33.33;25.77;;;9.50;96.40;;;;;;5034812;28;20188;-85
2022/03/19 07:17:35;;;;;;;36.78;27.80;;;10.90;92.30;;;;;;5031625;28;20181;-87
2022/03/19 07:20:01;;;;;;;35.27;26.30;;;11.30;90.10;;;;;;5039364;28;20591;-87
2022/03/19 07:22:26;;;;;;;34.27;28.03;;;12.00;88.60;;;;;;5028953;28;20642;-88
2022/03/19 07:24:52;;;;;;;32.37;26.77;;;12.90;87.10;;;;;;5031138;28;20193;-86
2022/03/19 07:27:17;;;;;;;33.20;27.50;;;12.70;83.90;;;;;;5030177;28;20204;-87
2022/03/19 07:29:43;;;;;;;35.23;27.67;;;12.80;85.40;;;;;;5034962;28;20284;-87
2022/03/19 07:32:10;;;;;;;31.20;26.40;;;13.20;80.90;;;;;;5025810;28;20257;-83
2022/03/19 07:34:39;;;;;;;33.15;28.48;;;14.00;78.30;;;;;;5028111;28;20197;-81
2022/03/19 07:37:04;;;;;;;33.60;26.48;;;13.60;77.90;;;;;;5024186;28;20657;-83
2022/03/19 07:39:30;;;;;;;32.83;25.57;;;14.10;76.70;;;;;;5033029;28;20184;-82
2022/03/19 07:41:56;;;;;;;31.43;26.20;;;13.70;77.70;;;;;;5031916;28;20189;-94
2022/03/19 07:44:21;;;;;;;30.77;27.43;;;14.00;77.90;;;;;;5024611;28;20386;-82
2022/03/19 07:46:47;;;;;;;33.37;27.00;;;14.50;75.40;;;;;;5030803;28;20182;-82
2022/03/19 07:49:12;;;;;;;29.73;25.73;;;14.90;73.20;;;;;;5026924;28;20181;-82
2022/03/19 07:51:38;;;;;;;30.90;26.27;;;15.10;71.40;;;;;;5024934;28;20240;-80
2022/03/19 07:54:04;;;;;;;27.85;24.85;;;15.90;69.50;;;;;;5039403;28;20206;-80
2022/03/19 07:56:30;;;;;;;29.60;26.63;;;15.70;67.50;;;;;;5026261;28;20181;-83
2022/03/19 07:58:55;;;;;;;28.93;24.93;;;15.90;67.00;;;;;;5032612;28;20193;-80
2022/03/19 08:01:21;;;;;;;29.80;26.63;;;16.20;64.50;;;;;;5034133;28;20204;-78
2022/03/19 08:03:47;;;;;;;28.70;25.60;;;15.20;65.70;;;;;;5019305;28;20493;-80
2022/03/19 08:06:13;;;;;;;26.05;23.30;;;16.60;63.30;;;;;;5038952;28;20240;-80
2022/03/19 08:08:39;;;;;;;26.02;23.23;;;17.10;61.10;;;;;;5045651;28;20183;-82
2022/03/19 08:11:05;;;;;;;27.67;24.67;;;17.10;59.00;;;;;;5026252;28;20302;-81
2022/03/19 08:13:31;;;;;;;30.53;26.67;;;17.20;58.40;;;;;;5018572;28;20650;-79
2022/03/19 08:15:57;;;;;;;30.83;24.70;;;17.10;58.70;;;;;;5038603;28;20194;-80
2022/03/19 08:18:23;;;;;;;30.20;24.80;;;16.00;58.30;;;;;;5026331;28;20269;-78
2022/03/19 08:20:49;;;;;;;29.35;25.30;;;16.00;59.80;;;;;;5027878;28;20269;-80
2022/03/19 08:23:20;;;;;;;28.13;24.67;;;15.30;59.40;;;;;;5033252;28;20693;-81
2022/03/19 08:25:46;;;;;;;27.45;24.05;;;16.10;60.10;;;;;;5029674;28;20194;-80
2022/03/19 08:28:11;;;;;;;26.77;23.67;;;15.50;58.60;;;;;;5027465;28;20268;-80
2022/03/19 08:30:37;;;;;;;24.87;22.23;;;15.70;59.70;;;;;;5044376;28;20460;-80
2022/03/19 08:33:02;;;;;;;25.60;22.93;;;14.20;59.60;;;;;;5029417;28;20555;-84
2022/03/19 08:35:28;;;;;;;24.80;22.00;;;14.10;60.60;;;;;;5027676;28;20343;-81
2022/03/19 08:40:15;;;;;;;25.70;22.07;;;13.80;62.00;;;;;;5032732;28;20204;-82
2022/03/19 08:40:40;;;;;;;23.38;20.85;;;14.00;62.10;;;;;;5045530;28;20439;-83
2022/03/19 08:43:05;;;;;;;26.43;22.43;;;14.40;61.60;;;;;;5027225;28;20201;-80
2022/03/19 08:45:31;;;;;;;25.97;21.13;;;14.40;60.10;;;;;;5024766;28;20444;-80
2022/03/19 08:47:57;;;;;;;23.47;20.63;;;15.00;59.40;;;;;;5040753;28;20221;-80
2022/03/19 08:50:24;;;;;;;24.57;20.87;;;14.40;58.90;;;;;;5024126;28;20712;-81
2022/03/19 08:52:50;;;;;;;26.98;22.25;;;14.30;59.30;;;;;;5033242;28;20259;-83
2022/03/19 08:55:15;;;;;;;23.30;19.83;;;14.70;58.20;;;;;;5030599;28;20186;-83
2022/03/19 08:57:41;;;;;;;30.93;21.37;;;16.70;59.70;;;;;;5030301;28;20178;-79
2022/03/19 09:00:07;;;;;;;25.57;18.80;;;15.00;56.80;;;;;;5027773;28;20193;-78
2022/03/19 09:02:33;;;;;;;23.85;20.55;;;15.20;56.60;;;;;;5023803;28;20185;-79
2022/03/19 09:04:59;;;;;;;23.15;20.75;;;15.60;55.90;;;;;;5022668;28;20271;-80
2022/03/19 09:07:25;;;;;;;21.97;18.90;;;15.30;55.20;;;;;;5043508;28;20189;-80
2022/03/19 09:09:52;;;;;;;22.50;19.57;;;15.10;55.70;;;;;;5024172;28;20202;-82
2022/03/19 09:12:26;;;;;;;25.13;21.38;;;15.20;56.00;;;;;;5027139;28;20713;-83
2022/03/19 09:14:53;;;;;;;23.67;19.88;;;15.50;56.00;;;;;;5021364;28;20187;-83
2022/03/19 09:17:19;;;;;;;23.45;20.17;;;15.00;55.60;;;;;;5024662;28;20219;-82
2022/03/19 09:19:44;;;;;;;30.30;22.10;;;16.00;55.30;;;;;;5037290;28;20269;-82
2022/03/19 09:22:10;;;;;;;24.10;21.50;;;16.10;55.10;;;;;;5023116;28;20439;-82
2022/03/19 09:24:35;;;;;;;23.03;20.60;;;16.80;54.50;;;;;;5020285;28;20228;-81
2022/03/19 09:27:01;;;;;;;25.10;22.40;;;16.00;54.50;;;;;;5026653;28;20181;-82
2022/03/19 09:29:27;;;;;;;25.00;22.33;;;17.30;53.50;;;;;;5044399;28;20178;-82
2022/03/19 09:31:52;;;;;;;24.60;22.00;;;16.50;52.40;;;;;;5048492;28;21054;-81
2022/03/19 09:34:18;;;;;;;23.57;21.17;;;15.50;53.50;;;;;;5027735;28;20478;-82
2022/03/19 09:36:46;;;;;;;24.50;21.03;;;16.00;54.60;;;;;;5030439;28;20204;-83
2022/03/19 09:39:14;;;;;;;24.88;22.33;;;16.50;53.70;;;;;;5030978;28;20722;-82
2022/03/19 09:41:44;;;;;;;25.40;22.73;;;16.00;53.70;;;;;;5025674;28;20192;-82
2022/03/19 09:44:16;;;;;;;26.95;23.08;;;16.00;55.40;;;;;;5032777;28;20216;-83
2022/03/19 09:46:45;;;;;;;26.73;22.80;;;16.70;55.00;;;;;;5021974;28;20192;-82
2022/03/19 09:49:11;;;;;;;26.70;23.40;;;16.80;53.00;;;;;;5023484;28;20234;-83
2022/03/19 09:51:40;;;;;;;25.03;22.50;;;18.10;52.80;;;;;;5026377;28;20684;-82
2022/03/19 09:54:06;;;;;;;24.08;21.48;;;17.50;51.90;;;;;;5026415;28;20198;-81
2022/03/19 09:56:33;;;;;;;25.55;22.80;;;18.60;52.00;;;;;;5035689;28;20265;-81
2022/03/19 09:58:59;;;;;;;25.25;22.60;;;18.60;50.80;;;;;;5025230;28;20230;-83
2022/03/19 10:01:25;;;;;;;26.37;23.63;;;19.00;49.90;;;;;;5029997;28;20277;-83
2022/03/19 10:03:50;;;;;;;25.43;22.93;;;19.20;49.60;;;;;;5029744;28;20731;-83
2022/03/19 10:09:01;;;;;;;24.25;21.85;;;20.00;49.20;;;;;;5041749;28;20209;-84
2022/03/19 10:11:33;;;;;;;27.17;24.33;;;19.80;47.50;;;;;;5034957;28;20205;-83
2022/03/19 10:14:03;;;;;;;31.33;25.45;;;19.80;47.40;;;;;;5023024;28;20996;-84
2022/03/19 10:16:29;;;;;;;26.77;23.95;;;19.80;47.60;;;;;;5014748;28;20274;-83
2022/03/19 10:18:57;;;;;;;25.57;22.97;;;19.70;47.70;;;;;;5018266;28;20186;-78
2022/03/19 10:21:24;;;;;;;24.63;22.00;;;20.20;47.70;;;;;;5020509;28;20205;-81
2022/03/19 10:24:13;;;;;;;25.48;22.80;;;19.90;46.80;;;;;;5023561;28;20685;-80
2022/03/19 10:26:38;;;;;;;27.25;22.67;;;19.50;46.20;;;;;;5018412;28;20201;-79
2022/03/19 10:29:11;;;;;;;23.73;21.20;;;18.90;47.10;;;;;;5018163;28;20182;-79
2022/03/19 10:31:40;;;;;;;26.45;23.70;;;18.60;47.30;;;;;;5028119;28;20259;-78
2022/03/19 10:34:07;;;;;;;26.25;23.55;;;18.40;48.00;;;;;;5015931;28;20202;-78
2022/03/19 10:36:35;;;;;;;26.88;22.20;;;17.90;48.10;;;;;;5029473;28;20779;-79
2022/03/19 10:39:12;;;;;;;26.33;23.48;;;17.60;48.60;;;;;;5022984;28;20649;-79
2022/03/19 10:41:38;;;;;;;27.65;23.73;;;17.60;48.80;;;;;;5046751;28;20192;-79
2022/03/19 10:44:19;;;;;;;27.90;24.95;;;17.10;50.60;;;;;;5033278;28;20522;-79
2022/03/19 10:46:55;;;;;;;28.08;23.83;;;16.30;52.10;;;;;;5033344;28;20237;-79
2022/03/19 10:49:23;;;;;;;26.00;23.40;;;16.70;52.10;;;;;;5026562;28;20185;-79
2022/03/19 10:51:52;;;;;;;27.23;24.23;;;16.00;51.60;;;;;;5033332;28;20234;-78
2022/03/19 10:54:18;;;;;;;30.27;24.38;;;16.20;52.50;;;;;;5032806;28;20204;-77
2022/03/19 10:56:44;;;;;;;26.58;23.38;;;16.20;52.80;;;;;;5033515;28;20208;-78
2022/03/19 10:59:11;;;;;;;26.02;23.30;;;16.70;52.30;;;;;;5029453;28;20653;-79
2022/03/19 11:01:37;;;;;;;27.58;23.67;;;16.80;51.80;;;;;;5047083;28;20224;-79
2022/03/19 11:04:05;;;;;;;28.75;24.65;;;17.20;52.80;;;;;;5028505;28;20271;-78
2022/03/19 11:06:36;;;;;;;28.13;25.23;;;17.30;52.30;;;;;;5050719;28;20637;-79
2022/03/19 11:09:15;;;;;;;27.67;24.90;;;17.30;51.70;;;;;;5048517;28;20217;-79
2022/03/19 11:11:55;;;;;;;30.48;25.45;;;18.40;52.30;;;;;;5033497;28;20221;-78
2022/03/19 11:14:23;;;;;;;27.45;24.45;;;18.60;51.60;;;;;;5031202;28;20312;-78
2022/03/19 11:17:26;;;;;;;26.63;23.67;;;18.80;51.00;;;;;;5034473;28;20254;-78
2022/03/19 11:19:53;;;;;;;24.95;22.33;;;18.50;50.30;;;;;;5037294;28;20191;-79
2022/03/19 11:22:19;;;;;;;24.17;21.70;;;18.50;50.10;;;;;;5047307;28;20185;-79
2022/03/19 11:24:53;;;;;;;23.98;21.45;;;19.30;50.30;;;;;;5030679;28;20208;-80
2022/03/19 11:27:20;;;;;;;24.05;21.55;;;19.30;49.40;;;;;;5033339;28;20177;-79
2022/03/19 11:29:46;;;;;;;24.35;21.75;;;18.40;49.80;;;;;;5031382;28;20185;-79
2022/03/19 11:32:22;;;;;;;23.17;20.57;;;18.00;50.10;;;;;;5046784;28;20525;-79
2022/03/19 11:34:49;;;;;;;24.13;18.65;;;17.40;48.90;;;;;;5027026;28;20189;-79
2022/03/19 11:37:15;;;;;;;18.35;16.40;;;17.70;49.30;;;;;;5026660;28;20284;-78
2022/03/19 11:40:22;;;;;;;19.20;16.27;;;17.80;48.70;;;;;;5021763;28;20321;-81
2022/03/19 11:42:57;;;;;;;16.15;14.45;;;17.50;47.40;;;;;;4957504;28;20554;-81
2022/03/19 11:45:23;;;;;;;15.80;14.20;;;17.00;48.10;;;;;;4931617;28;20255;-78
2022/03/19 11:47:49;;;;;;;15.68;12.45;;;16.60;48.90;;;;;;4998324;28;20204;-79
2022/03/19 11:50:21;;;;;;;13.40;12.00;;;15.70;49.20;;;;;;5046008;28;20666;-79
2022/03/19 11:52:46;;;;;;;14.20;12.13;;;15.70;50.50;;;;;;5032521;28;20220;-78
2022/03/19 11:55:16;;;;;;;12.90;11.50;;;15.60;51.90;;;;;;5047447;28;20173;-79
2022/03/19 11:58:00;;;;;;;12.15;10.80;;;15.30;52.10;;;;;;5027852;28;20180;-80
2022/03/19 12:00:31;;;;;;;14.30;11.55;;;14.90;52.40;;;;;;5028942;28;20264;-80
2022/03/19 12:03:13;;;;;;;13.55;12.15;;;15.60;51.90;;;;;;5020092;28;20205;-79
2022/03/19 12:05:46;;;;;;;13.23;11.23;;;15.70;52.30;;;;;;5034082;28;20193;-78
2022/03/19 12:08:14;;;;;;;13.52;10.98;;;15.10;51.60;;;;;;5024868;28;20284;-79
2022/03/19 12:11:13;;;;;;;12.50;10.65;;;16.00;52.00;;;;;;5021754;28;20209;-80
2022/03/19 12:13:42;;;;;;;11.45;10.20;;;16.30;50.30;;;;;;5014442;28;20232;-78
2022/03/19 12:16:08;;;;;;;12.70;11.10;;;15.70;49.00;;;;;;5047137;28;20182;-79
2022/03/19 12:18:41;;;;;;;11.77;10.00;;;15.60;50.80;;;;;;5027035;28;20182;-80
2022/03/19 12:21:10;;;;;;;11.88;9.82;;;15.20;50.20;;;;;;5017533;28;20186;-80
2022/03/19 12:23:45;;;;;;;11.75;9.55;;;15.60;49.80;;;;;;5023986;28;20221;-80
2022/03/19 12:26:14;;;;;;;12.23;10.50;;;15.00;50.10;;;;;;5041439;28;20687;-80
2022/03/19 12:28:39;;;;;;;11.85;10.20;;;14.90;49.60;;;;;;5026806;28;20212;-79
2022/03/19 12:31:08;;;;;;;12.03;9.13;;;15.20;50.60;;;;;;5022143;28;20633;-79
2022/03/19 12:33:34;;;;;;;12.10;9.50;;;15.40;49.80;;;;;;5025158;28;20289;-78
2022/03/19 12:36:14;;;;;;;10.65;8.85;;;15.30;48.70;;;;;;5031560;28;20337;-79
2022/03/19 12:38:39;;;;;;;12.43;9.88;;;14.90;48.80;;;;;;5029308;28;20177;-80
2022/03/19 12:43:50;;;;;;;11.23;9.93;;;14.50;49.80;;;;;;5035617;28;20225;-81
2022/03/19 12:46:25;;;;;;;10.55;9.30;;;14.00;49.70;;;;;;5033943;28;20208;-79
2022/03/19 12:48:52;;;;;;;13.68;10.10;;;14.60;49.80;;;;;;5015739;28;20543;-79
2022/03/19 12:51:25;;;;;;;13.25;9.65;;;14.30;51.30;;;;;;5030129;28;20201;-80